Gold Beach, OR (97444)

5:16 AM PST on December 07, 2016 (GMT -0800)
KF7MWX | | Change Station
Active Advisory: Frost Advisory

Elev 56 ft 42.41 °N, 124.42 °W | Updated 6 seconds ago

Clear
Clear
32.2 °F
Feels Like 32 °F
N
2.2
Wind Variable Wind from ESE
Gusts 6.0 mph

Today
High -- | Low -- °F
--% Chance of Precip.
Yesterday
High -- | Low -- °F
Precip. -- in
Pressure 30.22 in
Visibility 10.0 miles
Clouds Clear
Windchill 32 °F
Dew Point 31 °F
Humidity 97%
Rainfall 0.00 in
Snow Depth Not available.
7:33 AM 4:44 PM
First Quarter, 52% visible
METAR KBOK 071256Z AUTO 06007G15KT 030V090 10SM CLR 04/M03 A3017 RMK AO2 SLP233 T00391028
Pressure 30.22 in
Visibility 10.0 miles
Clouds Clear
Windchill 32 °F
Dew Point 31 °F
Humidity 97%
Rainfall 0.00 in
Snow Depth Not available.
7:33 AM 4:44 PM
First Quarter, 52% visible
METAR KBOK 071256Z AUTO 06007G15KT 030V090 10SM CLR 04/M03 A3017 RMK AO2 SLP233 T00391028

10-Day Weather Forecast

Almanac

Astronomy

Dec. 07, 2016 Rise Set
Actual Time
Civil Twilight
Nautical Twilight
Astronomical Twilight
Moon
Length of Visible Light
Length of Day
Tomorrow will be .
, % of the Moon is Illuminated

Today's Extremes

State Highs State Lows

Community

WunderPhotos

Upload Photos

1,956,112 photos uploaded!

WunderBlog® & News

Nearby

Air Quality

  Air Quality AQ Index Pollutant
Not available.

Snow Depth

Station Depth Elevation

Earthquake Activity

City Distance Mag. Time & Date
Minimum magnitude displayed is 2.5.

Coastal Water Temperatures

Place Temperature

Stations

Nearby Weather Stations

Station Location Temp. Windchill Dew Point Humidity Wind Precip. Elev Updated Type
                   

Watches & Warnings

Frost Advisory
Issued: 3:42 AM PST Dec. 7, 2016 – National Weather Service

... Frost advisory remains in effect until 8 am PST this morning...

* temperature... 33 to 36.

* Locations include Bandon... Coos Bay... North Bend... Reedsport
and areas along the coast.

* View the hazard area in detail at
http://weather.Gov/Medford/hazard

Precautionary/preparedness actions...

A freeze warning means sub-freezing temperatures are imminent or
highly likely. These conditions will kill crops and other
sensitive vegetation.

A frost advisory means that frost is possible. Sensitive outdoor
plants may be killed if left uncovered.